createdAt,value
2018-10-01T00:00:41.020Z,16.44
2018-10-01T00:01:41.038Z,16.30
2018-10-01T00:02:41.066Z,16.23
2018-10-01T00:03:41.078Z,16.22
2018-10-01T00:04:41.103Z,16.18
2018-10-01T00:05:41.119Z,16.20
2018-10-01T00:06:41.152Z,15.94
2018-10-01T00:07:41.165Z,15.89
2018-10-01T00:08:41.266Z,16.15
2018-10-01T00:09:41.195Z,16.22
2018-10-01T00:10:41.241Z,16.23
2018-10-01T00:11:41.252Z,16.23
2018-10-01T00:12:41.272Z,16.26
2018-10-01T00:13:41.286Z,16.27
2018-10-01T00:14:41.309Z,16.23
2018-10-01T00:15:41.331Z,16.23
2018-10-01T00:16:41.351Z,16.14
2018-10-01T00:17:41.364Z,15.96
2018-10-01T00:18:41.382Z,16.11
2018-10-01T00:19:41.407Z,16.27
2018-10-01T00:20:41.427Z,16.35
2018-10-01T00:21:41.465Z,16.44
2018-10-01T00:22:41.477Z,16.22
2018-10-01T00:23:41.490Z,16.26
2018-10-01T00:24:41.514Z,16.37
2018-10-01T00:25:41.530Z,16.48
2018-10-01T00:26:41.563Z,16.49
2018-10-01T00:27:41.574Z,16.58
2018-10-01T00:28:41.597Z,16.52
2018-10-01T00:29:41.614Z,16.55
2018-10-01T00:30:41.627Z,16.50
2018-10-01T00:31:41.644Z,16.45
2018-10-01T00:32:41.763Z,16.62
2018-10-01T00:33:41.686Z,16.41
2018-10-01T00:34:41.715Z,16.33
2018-10-01T00:35:41.728Z,16.25
2018-10-01T00:36:41.746Z,16.31
2018-10-01T00:37:41.764Z,16.26
2018-10-01T00:38:41.783Z,16.03
2018-10-01T00:39:41.814Z,16.07
2018-10-01T00:40:41.829Z,16.09
2018-10-01T00:41:41.852Z,15.89
2018-10-01T00:42:41.877Z,16.04
2018-10-01T00:43:41.890Z,16.25
2018-10-01T00:44:41.914Z,16.07
2018-10-01T00:45:41.927Z,15.84
2018-10-01T00:46:41.950Z,16.23
2018-10-01T00:47:41.973Z,16.16
2018-10-01T00:48:41.997Z,16.35
2018-10-01T00:49:42.009Z,16.35
2018-10-01T00:50:42.035Z,16.23
2018-10-01T00:51:42.053Z,16.23
2018-10-01T00:52:42.074Z,16.14
2018-10-01T00:53:42.085Z,15.92
2018-10-01T00:54:42.122Z,15.86
2018-10-01T00:56:42.228Z,15.89
2018-10-01T00:57:42.182Z,15.81
2018-10-01T00:58:42.194Z,15.97
2018-10-01T00:59:42.230Z,16.20
2018-10-01T01:00:42.247Z,16.23
2018-10-01T01:01:42.247Z,16.01
2018-10-01T01:02:42.278Z,16.23
2018-10-01T01:03:42.286Z,15.96
2018-10-01T01:04:42.312Z,16.11
2018-10-01T01:05:42.329Z,16.34
2018-10-01T01:06:42.355Z,16.31
2018-10-01T01:07:42.371Z,16.45
2018-10-01T01:08:42.390Z,16.30
2018-10-01T01:09:42.419Z,16.27
2018-10-01T01:10:42.427Z,16.14
2018-10-01T01:11:42.462Z,16.03
2018-10-01T01:12:42.473Z,16.26
2018-10-01T01:13:42.490Z,16.20
2018-10-01T01:14:42.511Z,16.11
2018-10-01T01:15:42.523Z,15.94
2018-10-01T01:16:42.551Z,16.09
2018-10-01T01:17:42.569Z,16.07
2018-10-01T01:18:42.593Z,16.14
2018-10-01T01:19:42.611Z,16.34
2018-10-01T01:20:42.626Z,16.55
2018-10-01T01:21:42.657Z,16.53
2018-10-01T01:22:42.676Z,16.45
2018-10-01T01:23:42.692Z,16.35
2018-10-01T01:24:42.777Z,16.30
2018-10-01T01:25:42.730Z,16.33
2018-10-01T01:26:42.753Z,16.04
2018-10-01T01:27:42.774Z,15.89
2018-10-01T01:28:42.799Z,15.85
2018-10-01T01:29:42.828Z,16.15
2018-10-01T01:30:42.836Z,16.22
2018-10-01T01:31:42.851Z,16.04
2018-10-01T01:32:42.871Z,16.22
2018-10-01T01:33:42.895Z,15.93
2018-10-01T01:34:42.914Z,15.79
2018-10-01T01:35:42.934Z,15.82
2018-10-01T01:36:42.953Z,15.78
2018-10-01T01:37:42.979Z,15.85
2018-10-01T01:38:42.997Z,15.94
2018-10-01T01:39:43.017Z,15.92
2018-10-01T01:40:43.025Z,15.82
2018-10-01T01:41:43.055Z,15.79
2018-10-01T01:42:43.071Z,15.68
2018-10-01T01:43:43.103Z,15.82
2018-10-01T01:44:43.106Z,15.82
2018-10-01T01:45:43.136Z,15.70
2018-10-01T01:46:43.152Z,15.85
2018-10-01T01:47:43.170Z,15.89
2018-10-01T01:48:43.189Z,15.81
2018-10-01T01:49:43.218Z,15.78
2018-10-01T01:50:43.228Z,15.79
2018-10-01T01:51:43.254Z,15.92
2018-10-01T01:52:43.287Z,15.89
2018-10-01T01:53:43.290Z,15.92
2018-10-01T01:54:43.306Z,15.89
2018-10-01T01:55:43.343Z,15.97
2018-10-01T01:56:43.357Z,15.86
2018-10-01T01:57:43.364Z,15.92
2018-10-01T01:58:43.391Z,15.82
2018-10-01T01:59:43.414Z,15.82
2018-10-01T02:00:43.428Z,15.88
2018-10-01T02:01:43.452Z,15.88
2018-10-01T02:02:43.479Z,15.96
2018-10-01T02:03:43.493Z,15.93
2018-10-01T02:04:43.512Z,16.06
2018-10-01T02:05:43.548Z,15.96
2018-10-01T02:06:43.545Z,15.89
2018-10-01T02:07:43.578Z,15.93
2018-10-01T02:08:43.591Z,15.81
2018-10-01T02:09:43.614Z,15.82
2018-10-01T02:10:43.633Z,15.85
2018-10-01T02:11:43.659Z,15.89
2018-10-01T02:12:43.669Z,15.97
2018-10-01T02:13:43.686Z,15.84
2018-10-01T02:14:43.758Z,15.96
2018-10-01T02:15:43.728Z,15.92
2018-10-01T02:16:43.764Z,15.85
2018-10-01T02:17:43.773Z,15.89
2018-10-01T02:18:43.791Z,16.00
2018-10-01T02:19:43.820Z,16.01
2018-10-01T02:20:43.834Z,16.01
2018-10-01T02:21:43.842Z,15.92
2018-10-01T02:22:43.875Z,15.96
2018-10-01T02:23:43.891Z,15.92
2018-10-01T02:24:43.913Z,16.00
2018-10-01T02:25:43.942Z,16.14
2018-10-01T02:26:43.951Z,15.99
2018-10-01T02:27:44.045Z,15.93
2018-10-01T02:28:44.005Z,15.94
2018-10-01T02:29:44.012Z,15.79
2018-10-01T02:30:44.023Z,15.92
2018-10-01T02:31:44.049Z,15.93
2018-10-01T02:32:44.083Z,15.66
2018-10-01T02:33:44.087Z,15.81
2018-10-01T02:34:44.113Z,15.82
2018-10-01T02:35:44.126Z,15.93
2018-10-01T02:36:44.147Z,15.92
2018-10-01T02:37:44.164Z,16.06
2018-10-01T02:38:44.302Z,16.12
2018-10-01T02:39:44.208Z,16.07
2018-10-01T02:40:44.230Z,15.78
2018-10-01T02:41:44.246Z,15.92
2018-10-01T02:42:44.266Z,15.93
2018-10-01T02:43:44.297Z,16.03
2018-10-01T02:44:44.303Z,15.93
2018-10-01T02:45:44.329Z,15.92
2018-10-01T02:46:44.353Z,15.96
2018-10-01T02:47:44.486Z,15.94
2018-10-01T02:49:44.416Z,15.96
2018-10-01T02:50:44.427Z,15.92
2018-10-01T02:51:44.500Z,15.94
2018-10-01T02:52:44.475Z,16.15
2018-10-01T02:53:44.489Z,16.12
2018-10-01T02:54:44.515Z,16.22
2018-10-01T02:55:44.536Z,16.33
2018-10-01T02:56:44.549Z,16.31
2018-10-01T02:57:44.570Z,16.35
2018-10-01T02:58:44.586Z,16.26
2018-10-01T02:59:44.607Z,16.12
2018-10-01T03:00:44.627Z,16.07
2018-10-01T03:01:44.644Z,15.92
2018-10-01T03:02:44.667Z,16.01
2018-10-01T03:03:44.690Z,15.78
2018-10-01T03:04:44.706Z,15.78
2018-10-01T03:05:44.721Z,15.81
2018-10-01T03:06:44.754Z,15.74
2018-10-01T03:07:44.769Z,15.67
2018-10-01T03:08:44.790Z,15.64
2018-10-01T03:09:44.799Z,15.64
2018-10-01T03:10:44.828Z,15.74
2018-10-01T03:11:44.840Z,15.75
2018-10-01T03:12:44.869Z,15.61
2018-10-01T03:13:44.887Z,15.46
2018-10-01T03:14:44.907Z,15.61
2018-10-01T03:15:44.921Z,15.56
2018-10-01T03:16:44.948Z,15.51
2018-10-01T03:17:44.966Z,15.52
2018-10-01T03:18:44.986Z,15.66
2018-10-01T03:19:45.086Z,15.74
2018-10-01T03:20:45.024Z,15.74
2018-10-01T03:21:45.048Z,15.82
2018-10-01T03:22:45.073Z,15.60
2018-10-01T03:23:45.080Z,15.60
2018-10-01T03:24:45.103Z,15.72
2018-10-01T03:25:45.117Z,15.93
2018-10-01T03:26:45.144Z,15.85
2018-10-01T03:27:45.161Z,15.93
2018-10-01T03:28:45.176Z,15.72
2018-10-01T03:29:45.197Z,15.68
2018-10-01T03:30:45.243Z,15.66
2018-10-01T03:32:45.256Z,15.54
2018-10-01T03:33:45.281Z,15.49
2018-10-01T03:34:45.303Z,15.38
2018-10-01T03:35:45.315Z,15.51
2018-10-01T03:36:45.340Z,15.52
2018-10-01T03:37:45.365Z,15.61
2018-10-01T03:38:45.382Z,15.84
2018-10-01T03:39:45.402Z,15.81
2018-10-01T03:40:45.420Z,15.72
2018-10-01T03:41:45.441Z,15.66
2018-10-01T03:42:45.453Z,15.68
2018-10-01T03:43:45.484Z,15.75
2018-10-01T03:44:45.508Z,15.72
2018-10-01T03:45:45.514Z,15.88
2018-10-01T03:47:45.567Z,15.81
2018-10-01T03:48:45.617Z,15.76
2018-10-01T03:49:45.597Z,15.74
2018-10-01T03:50:45.615Z,15.72
2018-10-01T03:51:45.647Z,15.72
2018-10-01T03:52:45.662Z,15.54
2018-10-01T03:53:45.674Z,15.59
2018-10-01T03:54:45.692Z,15.67
2018-10-01T03:55:45.718Z,15.68
2018-10-01T03:56:45.745Z,15.82
2018-10-01T03:58:45.791Z,15.82
2018-10-01T03:59:45.797Z,15.57
2018-10-01T04:00:45.826Z,15.43
2018-10-01T04:01:45.831Z,15.56
2018-10-01T04:02:45.853Z,15.39
2018-10-01T04:03:45.867Z,15.49
2018-10-01T04:04:45.895Z,15.45
2018-10-01T04:05:45.906Z,15.43
2018-10-01T04:06:45.930Z,15.41
2018-10-01T04:07:46.005Z,15.41
2018-10-01T04:08:45.971Z,15.36
2018-10-01T04:09:46.045Z,15.51
2018-10-01T04:10:46.033Z,15.43
2018-10-01T04:11:46.057Z,15.49
2018-10-01T04:12:46.051Z,15.39
2018-10-01T04:13:46.072Z,15.26
2018-10-01T04:14:46.092Z,15.24
2018-10-01T04:15:46.110Z,15.28
2018-10-01T04:16:46.139Z,15.42
2018-10-01T04:17:46.148Z,15.42
2018-10-01T04:18:46.167Z,15.49
2018-10-01T04:19:46.183Z,15.33
2018-10-01T04:20:46.214Z,15.54
2018-10-01T04:21:46.226Z,15.49
2018-10-01T04:22:46.267Z,15.45
2018-10-01T04:23:46.259Z,15.35
2018-10-01T04:24:46.292Z,15.42
2018-10-01T04:25:46.318Z,15.26
2018-10-01T04:26:46.338Z,15.31
2018-10-01T04:27:46.342Z,15.26
2018-10-01T04:28:46.373Z,15.38
2018-10-01T04:29:46.383Z,15.46
2018-10-01T04:30:46.407Z,15.27
2018-10-01T04:31:46.437Z,15.19
2018-10-01T04:32:46.456Z,14.91
2018-10-01T04:33:46.462Z,14.95
2018-10-01T04:34:46.494Z,14.93
2018-10-01T04:35:46.511Z,14.94
2018-10-01T04:36:46.534Z,15.02
2018-10-01T04:37:46.558Z,15.26
2018-10-01T04:38:46.560Z,15.23
2018-10-01T04:39:46.579Z,15.09
2018-10-01T04:40:46.667Z,15.21
2018-10-01T04:41:46.632Z,15.38
2018-10-01T04:42:46.649Z,15.31
2018-10-01T04:43:46.666Z,15.26
2018-10-01T04:44:46.681Z,15.49
2018-10-01T04:45:46.732Z,15.48
2018-10-01T04:46:46.781Z,15.42
2018-10-01T04:47:46.742Z,15.26
2018-10-01T04:48:46.769Z,15.21
2018-10-01T04:49:46.792Z,15.41
2018-10-01T04:50:46.867Z,15.38
2018-10-01T04:51:46.822Z,15.48
2018-10-01T04:52:46.840Z,15.42
2018-10-01T04:53:47.862Z,15.31
2018-10-01T04:54:46.876Z,15.41
2018-10-01T04:55:46.893Z,15.42
2018-10-01T04:56:46.912Z,15.38
2018-10-01T04:57:46.939Z,15.39
2018-10-01T04:58:46.967Z,15.54
2018-10-01T04:59:46.972Z,15.48
2018-10-01T05:00:46.991Z,15.30
2018-10-01T05:01:47.015Z,15.49
2018-10-01T05:02:47.035Z,15.43
2018-10-01T05:03:47.065Z,15.41
2018-10-01T05:04:47.083Z,15.42
2018-10-01T05:05:47.091Z,15.45
2018-10-01T05:06:47.119Z,15.52
2018-10-01T05:07:47.145Z,15.49
2018-10-01T05:08:47.158Z,15.45
2018-10-01T05:09:47.172Z,15.57
2018-10-01T05:10:47.196Z,15.52
2018-10-01T05:11:47.209Z,15.51
2018-10-01T05:12:47.233Z,15.61
2018-10-01T05:13:47.241Z,15.57
2018-10-01T05:14:47.373Z,15.49
2018-10-01T05:15:47.292Z,15.24
2018-10-01T05:16:47.309Z,15.21
2018-10-01T05:17:47.335Z,15.28
2018-10-01T05:18:47.349Z,15.36
2018-10-01T05:19:47.409Z,15.33
2018-10-01T05:20:47.388Z,15.36
2018-10-01T05:21:47.404Z,15.38
2018-10-01T05:22:47.436Z,15.35
2018-10-01T05:23:47.454Z,15.43
2018-10-01T05:24:47.464Z,15.48
2018-10-01T05:25:47.489Z,15.42
2018-10-01T05:26:47.508Z,15.36
2018-10-01T05:27:47.525Z,15.48
2018-10-01T05:28:47.545Z,15.38
2018-10-01T05:29:47.562Z,15.38
2018-10-01T05:30:47.582Z,15.43
2018-10-01T05:31:47.603Z,15.39
2018-10-01T05:32:47.617Z,15.48
2018-10-01T05:33:47.645Z,15.60
2018-10-01T05:34:47.656Z,15.39
2018-10-01T05:36:47.699Z,15.46
2018-10-01T05:37:47.807Z,15.48
2018-10-01T05:38:47.739Z,15.51
2018-10-01T05:39:47.760Z,15.41
2018-10-01T05:40:47.777Z,15.39
2018-10-01T05:41:47.796Z,15.42
2018-10-01T05:42:47.856Z,15.49
2018-10-01T05:43:47.837Z,15.51
2018-10-01T05:44:47.853Z,15.42
2018-10-01T05:45:47.872Z,15.39
2018-10-01T05:46:47.905Z,15.36
2018-10-01T05:47:47.920Z,15.31
2018-10-01T05:48:47.940Z,15.23
2018-10-01T05:49:47.956Z,15.33
2018-10-01T05:50:47.972Z,15.35
2018-10-01T05:51:47.992Z,15.35
2018-10-01T05:52:48.014Z,15.42
2018-10-01T05:53:48.068Z,15.23
2018-10-01T05:54:48.048Z,15.23
2018-10-01T05:55:48.076Z,15.24
2018-10-01T05:56:48.093Z,15.28
2018-10-01T05:57:48.121Z,15.30
2018-10-01T05:58:48.140Z,15.33
2018-10-01T05:59:48.154Z,15.42
2018-10-01T06:00:48.184Z,15.33
2018-10-01T06:01:48.184Z,15.38
2018-10-01T06:02:48.220Z,15.49
2018-10-01T06:03:48.232Z,15.38
2018-10-01T06:04:48.322Z,15.45
2018-10-01T06:05:48.267Z,15.43
2018-10-01T06:06:48.366Z,15.33
2018-10-01T06:07:48.309Z,15.33
2018-10-01T06:08:48.328Z,15.41
2018-10-01T06:09:48.347Z,15.20
2018-10-01T06:10:48.363Z,15.24
2018-10-01T06:11:48.400Z,15.24
2018-10-01T06:12:48.411Z,15.19
2018-10-01T06:13:48.426Z,15.26
2018-10-01T06:14:48.445Z,15.30
2018-10-01T06:15:48.471Z,15.45
2018-10-01T06:16:48.507Z,15.33
2018-10-01T06:17:48.507Z,15.24
2018-10-01T06:18:48.529Z,15.13
2018-10-01T06:19:48.554Z,15.26
2018-10-01T06:20:48.562Z,15.27
2018-10-01T06:21:48.577Z,15.27
2018-10-01T06:22:48.600Z,15.41
2018-10-01T06:23:48.625Z,15.24
2018-10-01T06:24:48.641Z,15.38
2018-10-01T06:25:48.667Z,15.36
2018-10-01T06:26:48.672Z,15.36
2018-10-01T06:27:48.702Z,15.48
2018-10-01T06:28:48.721Z,15.42
2018-10-01T06:29:48.731Z,15.49
2018-10-01T06:30:48.755Z,15.36
2018-10-01T06:31:48.777Z,15.36
2018-10-01T06:32:48.796Z,15.38
2018-10-01T06:33:48.811Z,15.35
2018-10-01T06:34:48.835Z,15.39
2018-10-01T06:35:48.856Z,15.38
2018-10-01T06:36:48.911Z,15.42
2018-10-01T06:37:48.889Z,15.26
2018-10-01T06:38:48.926Z,15.36
2018-10-01T06:39:48.936Z,15.23
2018-10-01T06:40:48.956Z,15.21
2018-10-01T06:41:49.081Z,15.38
2018-10-01T06:42:48.990Z,15.42
2018-10-01T06:43:49.011Z,15.45
2018-10-01T06:44:49.034Z,15.38
2018-10-01T06:45:49.059Z,15.52
2018-10-01T06:46:49.066Z,15.52
2018-10-01T06:47:49.092Z,15.52
2018-10-01T06:48:49.128Z,15.49
2018-10-01T06:49:49.128Z,15.46
2018-10-01T06:51:49.165Z,15.30
2018-10-01T06:52:49.194Z,15.38
2018-10-01T06:53:49.210Z,15.31
2018-10-01T06:54:49.229Z,15.41
2018-10-01T06:55:49.240Z,15.21
2018-10-01T06:56:49.286Z,15.26
2018-10-01T06:57:49.284Z,15.39
2018-10-01T06:58:49.356Z,15.27
2018-10-01T06:59:49.318Z,15.35
2018-10-01T07:00:49.341Z,15.38
2018-10-01T07:01:49.358Z,15.38
2018-10-01T07:02:49.386Z,15.41
2018-10-01T07:03:49.398Z,15.42
2018-10-01T07:04:49.421Z,15.36
2018-10-01T07:05:49.683Z,15.54
2018-10-01T07:06:49.480Z,15.39
2018-10-01T07:07:49.479Z,15.41
2018-10-01T07:08:49.499Z,15.08
2018-10-01T07:09:49.567Z,15.15
2018-10-01T07:10:49.536Z,15.26
2018-10-01T07:11:49.555Z,15.09
2018-10-01T07:12:49.574Z,15.27
2018-10-01T07:13:49.600Z,15.43
2018-10-01T07:14:49.609Z,15.23
2018-10-01T07:15:49.635Z,15.19
2018-10-01T07:16:49.689Z,15.36
2018-10-01T07:17:49.681Z,15.56
2018-10-01T07:18:49.698Z,15.61
2018-10-01T07:19:49.712Z,15.63
2018-10-01T07:20:49.733Z,15.78
2018-10-01T07:21:49.749Z,15.38
2018-10-01T07:22:49.812Z,15.23
2018-10-01T07:23:49.799Z,15.46
2018-10-01T07:24:49.813Z,15.48
2018-10-01T07:25:49.834Z,15.51
2018-10-01T07:26:49.911Z,15.56
2018-10-01T07:27:49.863Z,15.38
2018-10-01T07:28:49.890Z,15.42
2018-10-01T07:29:49.900Z,15.23
2018-10-01T07:30:49.926Z,15.24
2018-10-01T07:31:49.961Z,15.35
2018-10-01T07:32:49.979Z,15.31
2018-10-01T07:33:49.989Z,15.41
2018-10-01T07:34:50.033Z,15.42
2018-10-01T07:35:50.058Z,15.54
2018-10-01T07:36:50.078Z,15.49
2018-10-01T07:37:50.068Z,15.52
2018-10-01T07:38:50.080Z,15.45
2018-10-01T07:39:50.109Z,15.41
2018-10-01T07:40:50.132Z,15.27
2018-10-01T07:41:50.141Z,15.11
2018-10-01T07:42:50.159Z,15.19
2018-10-01T07:43:50.180Z,15.31
2018-10-01T07:44:50.242Z,15.36
2018-10-01T07:45:50.215Z,15.46
2018-10-01T07:46:50.239Z,15.41
2018-10-01T07:47:50.268Z,15.23
2018-10-01T07:48:50.343Z,15.15
2018-10-01T07:49:50.301Z,15.35
2018-10-01T07:50:50.435Z,15.21
2018-10-01T07:51:50.337Z,15.20
2018-10-01T07:52:50.355Z,14.98
2018-10-01T07:53:50.419Z,15.19
2018-10-01T07:54:50.388Z,15.36
2018-10-01T07:55:50.411Z,15.35
2018-10-01T07:56:50.429Z,15.36
2018-10-01T07:57:50.460Z,15.49
2018-10-01T07:58:50.470Z,15.42
2018-10-01T07:59:50.576Z,15.46
2018-10-01T08:00:50.501Z,15.48
2018-10-01T08:01:50.546Z,15.51
2018-10-01T08:02:50.549Z,15.43
2018-10-01T08:03:50.598Z,15.46
2018-10-01T08:04:50.591Z,15.31
2018-10-01T08:05:50.601Z,15.41
2018-10-01T08:06:50.619Z,15.49
2018-10-01T08:07:50.648Z,15.36
2018-10-01T08:08:50.664Z,15.41
2018-10-01T08:09:50.680Z,15.45
2018-10-01T08:10:50.709Z,15.42
2018-10-01T08:11:50.713Z,15.49
2018-10-01T08:12:50.747Z,15.39
2018-10-01T08:13:50.764Z,15.41
2018-10-01T08:14:50.785Z,15.57
2018-10-01T08:15:50.849Z,15.66
2018-10-01T08:16:50.838Z,15.70
2018-10-01T08:17:50.840Z,15.54
2018-10-01T08:18:50.892Z,15.52
2018-10-01T08:19:50.879Z,15.49
2018-10-01T08:20:50.924Z,15.46
2018-10-01T08:21:50.910Z,15.48
2018-10-01T08:22:50.929Z,15.46
2018-10-01T08:23:50.961Z,15.54
2018-10-01T08:24:50.974Z,15.59
2018-10-01T08:25:50.994Z,15.67
2018-10-01T08:26:51.012Z,15.54
2018-10-01T08:27:51.054Z,15.48
2018-10-01T08:28:51.049Z,15.60
2018-10-01T08:29:51.414Z,15.61
2018-10-01T08:30:51.089Z,15.64
2018-10-01T08:31:51.117Z,15.74
2018-10-01T08:32:51.130Z,15.59
2018-10-01T08:33:51.145Z,15.60
2018-10-01T08:34:51.187Z,15.43
2018-10-01T08:35:51.192Z,15.56
2018-10-01T08:36:51.215Z,15.48
2018-10-01T08:37:51.229Z,15.67
2018-10-01T08:38:51.254Z,15.63
2018-10-01T08:39:51.274Z,15.59
2018-10-01T08:40:51.382Z,15.57
2018-10-01T08:41:51.307Z,15.60
2018-10-01T08:42:51.327Z,15.68
2018-10-01T08:43:51.360Z,15.67
2018-10-01T08:44:51.369Z,15.79
2018-10-01T08:45:51.388Z,15.82
2018-10-01T08:46:51.405Z,15.79
2018-10-01T08:47:51.416Z,15.76
2018-10-01T08:48:51.456Z,15.75
2018-10-01T08:49:51.467Z,15.67
2018-10-01T08:50:51.478Z,15.82
2018-10-01T08:51:51.590Z,15.63
2018-10-01T08:52:51.524Z,15.67
2018-10-01T08:53:51.560Z,15.74
2018-10-01T08:55:51.579Z,15.75
2018-10-01T08:56:51.602Z,15.81
2018-10-01T08:57:51.662Z,15.88
2018-10-01T08:58:51.644Z,15.97
2018-10-01T08:59:51.700Z,15.85
2018-10-01T09:00:51.680Z,15.85
2018-10-01T09:01:51.713Z,15.85
2018-10-01T09:02:51.733Z,15.79
2018-10-01T09:03:51.748Z,15.72
2018-10-01T09:04:51.764Z,15.81
2018-10-01T09:05:51.799Z,15.84
2018-10-01T09:06:51.847Z,15.89
2018-10-01T09:07:51.826Z,15.88
2018-10-01T09:08:51.843Z,15.84
2018-10-01T09:09:51.863Z,15.85
2018-10-01T09:10:51.879Z,15.82
2018-10-01T09:11:51.893Z,15.79
2018-10-01T09:12:51.920Z,15.72
2018-10-01T09:13:51.943Z,15.68
2018-10-01T09:14:52.035Z,15.85
2018-10-01T09:15:51.969Z,15.79
2018-10-01T09:16:51.991Z,15.89
2018-10-01T09:17:52.023Z,15.89
2018-10-01T09:18:52.039Z,15.93
2018-10-01T09:19:52.051Z,15.94
2018-10-01T09:20:52.076Z,15.88
2018-10-01T09:21:52.188Z,15.89
2018-10-01T09:22:52.112Z,15.82
2018-10-01T09:23:52.157Z,15.88
2018-10-01T09:24:52.166Z,15.93
2018-10-01T09:25:52.169Z,15.99
2018-10-01T09:26:52.192Z,15.93
2018-10-01T09:28:52.235Z,15.92
2018-10-01T09:29:52.300Z,15.94
2018-10-01T09:30:52.358Z,15.94
2018-10-01T09:31:52.295Z,16.12
2018-10-01T09:32:52.321Z,16.04
2018-10-01T09:34:52.354Z,16.03
2018-10-01T09:35:52.390Z,16.16
2018-10-01T09:36:52.399Z,16.18
2018-10-01T09:37:52.424Z,16.26
2018-10-01T09:38:52.428Z,16.25
2018-10-01T09:39:52.458Z,16.26
2018-10-01T09:40:52.478Z,16.30
2018-10-01T09:41:52.489Z,16.18
2018-10-01T09:42:52.522Z,16.40
2018-10-01T09:43:52.532Z,16.48
2018-10-01T09:44:52.548Z,16.42
2018-10-01T09:45:52.689Z,16.50
2018-10-01T09:46:52.593Z,16.55
2018-10-01T09:47:52.619Z,16.49
2018-10-01T09:48:52.647Z,16.52
2018-10-01T09:49:52.702Z,16.49
2018-10-01T09:50:52.683Z,16.18
2018-10-01T09:51:52.724Z,16.09
2018-10-01T09:52:52.710Z,16.07
2018-10-01T09:53:53.738Z,15.99
2018-10-01T09:54:52.766Z,15.94
2018-10-01T09:55:52.769Z,16.20
2018-10-01T09:56:52.808Z,16.20
2018-10-01T09:57:52.819Z,16.20
2018-10-01T09:58:52.845Z,16.06
2018-10-01T09:59:52.871Z,16.09
2018-10-01T10:00:52.876Z,16.20
2018-10-01T10:01:52.911Z,16.16
2018-10-01T10:02:52.916Z,16.00
2018-10-01T10:03:52.989Z,15.89
2018-10-01T10:04:53.043Z,16.09
2018-10-01T10:05:52.971Z,16.06
2018-10-01T10:06:52.993Z,16.25
2018-10-01T10:07:53.032Z,16.14
2018-10-01T10:08:53.045Z,16.20
2018-10-01T10:09:53.052Z,16.00
2018-10-01T10:10:53.076Z,16.23
2018-10-01T10:11:53.095Z,16.25
2018-10-01T10:12:53.115Z,16.34
2018-10-01T10:13:53.150Z,16.27
2018-10-01T10:14:53.158Z,16.34
2018-10-01T10:15:53.192Z,16.35
2018-10-01T10:16:53.366Z,16.34
2018-10-01T10:17:53.225Z,16.45
2018-10-01T10:18:53.229Z,16.33
2018-10-01T10:19:53.265Z,16.25
2018-10-01T10:20:53.288Z,16.38
2018-10-01T10:21:53.295Z,16.20
2018-10-01T10:22:53.324Z,16.25
2018-10-01T10:23:53.342Z,16.35
2018-10-01T10:24:53.368Z,16.50
2018-10-01T10:25:53.390Z,16.52
2018-10-01T10:26:53.400Z,16.48
2018-10-01T10:27:53.425Z,16.50
2018-10-01T10:28:53.453Z,16.38
2018-10-01T10:29:53.460Z,16.44
2018-10-01T10:30:53.477Z,16.23
2018-10-01T10:31:53.497Z,16.31
2018-10-01T10:32:53.514Z,16.20
2018-10-01T10:33:53.541Z,16.25
2018-10-01T10:34:53.566Z,16.53
2018-10-01T10:35:53.681Z,16.52
2018-10-01T10:36:53.610Z,16.49
2018-10-01T10:37:53.619Z,16.55
2018-10-01T10:38:53.662Z,16.58
2018-10-01T10:39:53.665Z,16.67
2018-10-01T10:40:53.686Z,16.81
2018-10-01T10:41:53.796Z,16.80
2018-10-01T10:42:53.734Z,16.89
2018-10-01T10:43:53.747Z,16.93
2018-10-01T10:44:53.758Z,16.93
2018-10-01T10:46:53.806Z,16.95
2018-10-01T10:47:53.879Z,17.03
2018-10-01T10:48:54.009Z,16.99
2018-10-01T10:49:53.864Z,17.08
2018-10-01T10:50:53.899Z,17.13
2018-10-01T10:51:53.897Z,17.00
2018-10-01T10:52:53.931Z,16.93
2018-10-01T10:53:53.950Z,16.88
2018-10-01T10:54:53.972Z,16.89
2018-10-01T10:55:54.000Z,16.85
2018-10-01T10:56:54.037Z,16.86
2018-10-01T10:57:54.030Z,16.74
2018-10-01T10:58:54.053Z,16.70
2018-10-01T10:59:54.067Z,16.55
2018-10-01T11:00:54.092Z,16.53
2018-10-01T11:01:54.108Z,16.49
2018-10-01T11:02:54.131Z,16.30
2018-10-01T11:03:54.159Z,16.38
2018-10-01T11:04:54.171Z,16.48
2018-10-01T11:05:54.207Z,16.55
2018-10-01T11:06:54.211Z,16.67
2018-10-01T11:07:54.280Z,16.65
2018-10-01T11:08:54.271Z,16.81
2018-10-01T11:09:54.273Z,16.86
2018-10-01T11:10:54.299Z,16.88
2018-10-01T11:11:54.324Z,17.00
2018-10-01T11:13:54.425Z,17.06
2018-10-01T11:14:54.516Z,16.99
2018-10-01T11:15:54.404Z,16.92
2018-10-01T11:16:54.417Z,16.98
2018-10-01T11:17:54.464Z,16.95
2018-10-01T11:18:54.599Z,16.92
2018-10-01T11:19:54.533Z,16.90
2018-10-01T11:20:54.646Z,16.92
2018-10-01T11:21:54.655Z,16.83
2018-10-01T11:22:54.577Z,16.78
2018-10-01T11:23:54.589Z,16.86
2018-10-01T11:24:54.604Z,16.81
2018-10-01T11:25:54.628Z,16.68
2018-10-01T11:26:54.674Z,16.55
2018-10-01T11:27:54.823Z,16.63
2018-10-01T11:28:54.726Z,16.70
2018-10-01T11:29:54.706Z,16.81
2018-10-01T11:30:54.741Z,16.68
2018-10-01T11:31:54.819Z,16.55
2018-10-01T11:32:54.786Z,16.58
2018-10-01T11:33:54.778Z,16.56
2018-10-01T11:34:54.821Z,16.52
2018-10-01T11:35:54.851Z,16.59
2018-10-01T11:36:54.843Z,16.65
2018-10-01T11:37:54.874Z,16.70
2018-10-01T11:38:54.910Z,18.28
2018-10-01T11:39:54.906Z,18.44
2018-10-01T11:40:55.085Z,18.00
2018-10-01T11:41:54.954Z,17.76
2018-10-01T11:42:54.972Z,17.81
2018-10-01T11:43:54.993Z,17.84
2018-10-01T11:44:55.008Z,17.84
2018-10-01T11:45:55.028Z,17.78
2018-10-01T11:46:55.051Z,17.78
2018-10-01T11:47:55.073Z,17.74
2018-10-01T11:48:55.097Z,17.63
2018-10-01T11:49:55.113Z,17.78
2018-10-01T11:50:55.183Z,17.63
2018-10-01T11:51:55.259Z,17.71
2018-10-01T11:52:55.175Z,17.71
2018-10-01T11:53:55.208Z,17.81
2018-10-01T11:54:55.217Z,17.74
2018-10-01T11:55:55.240Z,17.71
2018-10-01T11:56:55.278Z,17.76
2018-10-01T11:57:55.283Z,17.78
2018-10-01T11:58:55.345Z,17.76
2018-10-01T11:59:55.321Z,17.78
2018-10-01T12:00:55.347Z,17.78
2018-10-01T12:01:55.372Z,17.81
2018-10-01T12:02:55.422Z,17.79
2018-10-01T12:03:55.465Z,17.76
2018-10-01T12:04:55.438Z,17.73
2018-10-01T12:05:55.601Z,17.81
2018-10-01T12:06:55.481Z,17.81
2018-10-01T12:07:55.489Z,17.92
2018-10-01T12:08:55.614Z,17.89
2018-10-01T12:09:55.686Z,17.79
2018-10-01T12:10:55.556Z,17.63
2018-10-01T12:11:55.590Z,17.51
2018-10-01T12:12:55.601Z,17.54
2018-10-01T12:13:55.647Z,17.53
2018-10-01T12:14:55.654Z,17.51
2018-10-01T12:15:55.753Z,17.55
2018-10-01T12:16:55.712Z,17.44
2018-10-01T12:17:55.705Z,17.47
2018-10-01T12:18:55.720Z,17.41
2018-10-01T12:19:55.782Z,17.41
2018-10-01T12:20:55.864Z,17.32
2018-10-01T12:21:55.929Z,17.30
2018-10-01T12:22:55.855Z,17.33
2018-10-01T12:23:55.874Z,17.29
2018-10-01T12:24:55.857Z,17.25
2018-10-01T12:25:55.888Z,17.17
2018-10-01T12:26:55.930Z,17.13
2018-10-01T12:27:55.916Z,16.99
2018-10-01T12:29:55.958Z,16.96
2018-10-01T12:30:56.019Z,17.13
2018-10-01T12:31:56.013Z,17.15
2018-10-01T12:32:56.047Z,17.18
2018-10-01T12:33:56.048Z,17.07
2018-10-01T12:34:56.122Z,16.98
2018-10-01T12:35:56.090Z,16.92
2018-10-01T12:36:56.118Z,16.93
2018-10-01T12:37:56.158Z,16.96
2018-10-01T12:38:56.166Z,16.99
2018-10-01T12:39:56.184Z,16.98
2018-10-01T12:40:56.190Z,16.92
2018-10-01T12:41:56.223Z,16.95
2018-10-01T12:42:56.310Z,17.00
2018-10-01T12:43:56.345Z,16.95
2018-10-01T12:44:56.276Z,16.99
2018-10-01T12:45:56.298Z,16.93
2018-10-01T12:46:56.329Z,16.93
2018-10-01T12:47:56.343Z,16.92
2018-10-01T12:48:56.403Z,16.93
2018-10-01T12:49:56.371Z,16.95
2018-10-01T12:50:56.403Z,16.96
2018-10-01T12:51:56.425Z,16.92
2018-10-01T12:52:56.432Z,16.92
2018-10-01T12:53:56.466Z,16.92
2018-10-01T12:54:56.537Z,17.06
2018-10-01T12:55:56.502Z,17.14
2018-10-01T12:56:56.530Z,17.14
2018-10-01T12:57:56.539Z,17.11
2018-10-01T12:58:56.643Z,17.22
2018-10-01T12:59:56.585Z,17.29
2018-10-01T13:00:56.618Z,17.17
2018-10-01T13:01:56.627Z,17.23
2018-10-01T13:02:56.656Z,17.20
2018-10-01T13:03:56.668Z,17.23
2018-10-01T13:04:56.718Z,17.25
2018-10-01T13:05:56.727Z,17.20